Detall de PIREP

Printer-friendly versionPDF version

[2013/09/07 09:49:00]
Flight IATA:CT3254
Pilot Number:012
Company ICAO:CAT
Aircraft Type:B744/E
PAX:306
Departing Airport: LEPA
Destination Airport: LDZA
Alternate Airport:LOWW
Online: VATSIM
Route:MEROS/M084F380 UN853 LUMAS UM985 GEN UM859 LUPOS UZ713 FER UM859 CHI/M083F390 UL614 PUL/N0441F270 P11 CRE W45 KULEN M986 KOTOR
Flight Level:F390
No Slew and time accel
No pause
Crash detect
Detect pilot in Cockpit between each 30 and 45 minutes
09:49 Zero fuel Weight: 455997 Lbs, Fuel Weight: 90033 Lbs
09:49 VATSIM:LEPA 070930Z 19004KT 100V250 9999 FEW025 SCT028 27/18 Q1017 NOSIG
09:49 VATSIM:LDZA 070930Z VRB03KT CAVOK 23/14 Q1020 NOSIG
09:49 VOICE CATALONIAN
09:59 Take-off
09:59 Take off Weight: 544272 Lbs
09:59 Wind: 175º @ 004 Knots Heading: 237º
09:59 POS N39º 33´ 16´´ E002º 43´ 34´´
09:59 Gear Up: 182 Knots
09:59 Flaps:3 at 182 Knots
09:59 Flaps:2 at 214 Knots
09:59 Flaps:1 at 224 Knots
10:00 Flaps:0 at 253 Knots
10:14 Wind:253º@079 Knots Heading: 025º Ground Speed: 542 Knots Altitude 36640 ft
10:29 Wind:240º@055 Knots Heading: 037º Ground Speed: 534 Knots Altitude 38090 ft
10:44 Wind:209º@037 Knots Heading: 056º Ground Speed: 516 Knots Altitude 38136 ft
10:59 Wind:208º@026 Knots Heading: 087º Ground Speed: 496 Knots Altitude 38172 ft
11:12 TOC
11:12 Fuel Weight: 57690 Lb
11:14 Wind:183º@018 Knots Heading: 101º Ground Speed: 482 Knots Altitude 39127 ft
11:17 TOD
11:17 Fuel Weight: 56113 Lb
11:29 Wind:350º@006 Knots Heading: 047º Ground Speed: 344 Knots Altitude 11571 ft
11:30 Flaps:1 at 221 Knots
11:30 Flaps:2 at 211 Knots
11:31 Flaps:3 at 214 Knots
11:34 Flaps:4 at 177 Knots
11:35 Gear Down: 169 Knots
11:35 Flaps:5 at 169 Knots
11:36 Flaps:6 at 159 Knots
11:40 TouchDown:Rate -271 ft/min Speed: 126 Knots
11:40 VATSIM:LDZA 071130Z VRB03KT CAVOK 26/12 Q1020 NOSIG
11:40 Land
11:40 Wind:356º@003 Knots
11:40 Heading: 048º
11:40 Flight Duration: 01:41
11:40 Landing Weight: 507137 Lbs
11:40 POS N45º 44´ 18´´ E016º 03´ 43´´
11:45 Parking brakes on
11:45 Block to Block Duration: 01:46
11:45 Final Fuel: 50396 Lbls
11:45 Spent Fuel: 39636 Lbls
11:45 Flight Length: 771 NM
11:45 TOD Land Length: 116 NM

Exportar CSV

Powered by Drupal - Modified by Danger4k